sensor_id;sensor_type;location;lat;lon;timestamp;P1;durP1;ratioP1;P2;durP2;ratioP2
56321;SDS011;42227;6.376;-10.782;2023-04-29T00:00:48;9.95;;;5.70;;
56321;SDS011;42227;6.376;-10.782;2023-04-29T00:03:17;18.60;;;6.78;;
56321;SDS011;42227;6.376;-10.782;2023-04-29T00:05:45;16.08;;;5.35;;
56321;SDS011;42227;6.376;-10.782;2023-04-29T00:08:14;25.48;;;6.90;;
56321;SDS011;42227;6.376;-10.782;2023-04-29T00:10:42;12.38;;;4.78;;
56321;SDS011;42227;6.376;-10.782;2023-04-29T00:13:10;17.27;;;5.20;;
56321;SDS011;42227;6.376;-10.782;2023-04-29T00:15:39;21.92;;;6.00;;
56321;SDS011;42227;6.376;-10.782;2023-04-29T00:18:08;14.85;;;6.85;;
56321;SDS011;42227;6.376;-10.782;2023-04-29T00:20:36;9.02;;;5.68;;
56321;SDS011;42227;6.376;-10.782;2023-04-29T00:23:06;9.85;;;4.80;;
56321;SDS011;42227;6.376;-10.782;2023-04-29T00:25:34;10.50;;;5.05;;
56321;SDS011;42227;6.376;-10.782;2023-04-29T00:28:02;12.20;;;5.90;;
56321;SDS011;42227;6.376;-10.782;2023-04-29T00:30:31;11.13;;;5.65;;
56321;SDS011;42227;6.376;-10.782;2023-04-29T00:33:00;16.80;;;6.18;;
56321;SDS011;42227;6.376;-10.782;2023-04-29T00:35:28;9.43;;;5.82;;
56321;SDS011;42227;6.376;-10.782;2023-04-29T00:37:56;13.35;;;5.53;;
56321;SDS011;42227;6.376;-10.782;2023-04-29T00:40:26;11.10;;;6.15;;
56321;SDS011;42227;6.376;-10.782;2023-04-29T00:42:57;9.68;;;4.70;;
56321;SDS011;42227;6.376;-10.782;2023-04-29T00:45:25;11.23;;;6.05;;
56321;SDS011;42227;6.376;-10.782;2023-04-29T00:47:53;10.30;;;5.05;;
56321;SDS011;42227;6.376;-10.782;2023-04-29T00:50:22;12.95;;;5.05;;
56321;SDS011;42227;6.376;-10.782;2023-04-29T00:52:50;12.68;;;6.55;;
56321;SDS011;42227;6.376;-10.782;2023-04-29T00:55:18;11.80;;;5.82;;
56321;SDS011;42227;6.376;-10.782;2023-04-29T00:57:47;12.20;;;5.55;;
56321;SDS011;42227;6.376;-10.782;2023-04-29T01:00:16;9.45;;;6.05;;
56321;SDS011;42227;6.376;-10.782;2023-04-29T01:02:45;13.57;;;7.68;;
56321;SDS011;42227;6.376;-10.782;2023-04-29T01:05:14;16.92;;;9.07;;
56321;SDS011;42227;6.376;-10.782;2023-04-29T01:10:49;9.02;;;6.28;;
56321;SDS011;42227;6.376;-10.782;2023-04-29T01:13:25;15.63;;;8.50;;
56321;SDS011;42227;6.376;-10.782;2023-04-29T01:16:50;7.30;;;5.55;;
56321;SDS011;42227;6.376;-10.782;2023-04-29T01:19:27;9.93;;;7.30;;
56321;SDS011;42227;6.376;-10.782;2023-04-29T01:22:10;19.20;;;8.60;;
56321;SDS011;42227;6.376;-10.782;2023-04-29T01:24:39;15.10;;;10.27;;
56321;SDS011;42227;6.376;-10.782;2023-04-29T01:27:09;14.75;;;8.48;;
56321;SDS011;42227;6.376;-10.782;2023-04-29T01:33:01;14.38;;;9.63;;
56321;SDS011;42227;6.376;-10.782;2023-04-29T01:44:52;18.38;;;11.90;;
56321;SDS011;42227;6.376;-10.782;2023-04-29T01:47:24;12.75;;;10.95;;
56321;SDS011;42227;6.376;-10.782;2023-04-29T01:49:53;16.88;;;10.07;;
56321;SDS011;42227;6.376;-10.782;2023-04-29T01:52:22;21.25;;;10.63;;
56321;SDS011;42227;6.376;-10.782;2023-04-29T01:57:23;14.65;;;11.07;;
56321;SDS011;42227;6.376;-10.782;2023-04-29T02:00:00;15.88;;;10.88;;
56321;SDS011;42227;6.376;-10.782;2023-04-29T02:02:49;12.27;;;9.98;;
56321;SDS011;42227;6.376;-10.782;2023-04-29T02:05:26;10.95;;;8.68;;
56321;SDS011;42227;6.376;-10.782;2023-04-29T02:07:56;15.73;;;9.57;;
56321;SDS011;42227;6.376;-10.782;2023-04-29T02:10:24;23.90;;;11.13;;
56321;SDS011;42227;6.376;-10.782;2023-04-29T02:13:03;12.07;;;8.93;;
56321;SDS011;42227;6.376;-10.782;2023-04-29T02:15:31;14.18;;;8.68;;
56321;SDS011;42227;6.376;-10.782;2023-04-29T02:17:59;13.82;;;7.53;;
56321;SDS011;42227;6.376;-10.782;2023-04-29T02:20:28;15.13;;;8.15;;
56321;SDS011;42227;6.376;-10.782;2023-04-29T02:22:56;14.45;;;8.02;;
56321;SDS011;42227;6.376;-10.782;2023-04-29T02:25:24;14.95;;;6.50;;
56321;SDS011;42227;6.376;-10.782;2023-04-29T02:27:52;11.32;;;8.30;;
56321;SDS011;42227;6.376;-10.782;2023-04-29T02:30:21;26.58;;;9.90;;
56321;SDS011;42227;6.376;-10.782;2023-04-29T02:32:49;17.75;;;8.82;;
56321;SDS011;42227;6.376;-10.782;2023-04-29T02:35:17;22.13;;;10.80;;
56321;SDS011;42227;6.376;-10.782;2023-04-29T02:37:46;13.98;;;9.48;;
56321;SDS011;42227;6.376;-10.782;2023-04-29T02:40:14;14.10;;;9.50;;
56321;SDS011;42227;6.376;-10.782;2023-04-29T02:42:42;19.98;;;9.65;;
56321;SDS011;42227;6.376;-10.782;2023-04-29T02:45:11;24.55;;;10.07;;
56321;SDS011;42227;6.376;-10.782;2023-04-29T02:47:39;20.17;;;8.20;;
56321;SDS011;42227;6.376;-10.782;2023-04-29T02:50:07;13.70;;;8.60;;
56321;SDS011;42227;6.376;-10.782;2023-04-29T02:52:36;14.15;;;7.28;;
56321;SDS011;42227;6.376;-10.782;2023-04-29T02:55:04;14.75;;;7.90;;
56321;SDS011;42227;6.376;-10.782;2023-04-29T02:57:33;12.43;;;6.78;;
56321;SDS011;42227;6.376;-10.782;2023-04-29T03:00:01;11.98;;;7.28;;
56321;SDS011;42227;6.376;-10.782;2023-04-29T03:02:29;16.45;;;7.05;;
56321;SDS011;42227;6.376;-10.782;2023-04-29T03:04:59;19.92;;;8.20;;
56321;SDS011;42227;6.376;-10.782;2023-04-29T03:07:27;10.88;;;7.65;;
56321;SDS011;42227;6.376;-10.782;2023-04-29T03:09:56;16.35;;;8.40;;
56321;SDS011;42227;6.376;-10.782;2023-04-29T03:12:24;17.52;;;7.57;;
56321;SDS011;42227;6.376;-10.782;2023-04-29T03:14:53;15.57;;;8.48;;
56321;SDS011;42227;6.376;-10.782;2023-04-29T03:17:22;13.23;;;7.75;;
56321;SDS011;42227;6.376;-10.782;2023-04-29T03:19:50;21.60;;;9.15;;
56321;SDS011;42227;6.376;-10.782;2023-04-29T03:22:19;11.35;;;6.90;;
56321;SDS011;42227;6.376;-10.782;2023-04-29T03:24:47;13.65;;;9.02;;
56321;SDS011;42227;6.376;-10.782;2023-04-29T03:27:15;28.08;;;9.38;;
56321;SDS011;42227;6.376;-10.782;2023-04-29T03:29:43;9.98;;;7.90;;
56321;SDS011;42227;6.376;-10.782;2023-04-29T03:32:12;17.15;;;9.05;;
56321;SDS011;42227;6.376;-10.782;2023-04-29T03:34:40;12.35;;;7.20;;
56321;SDS011;42227;6.376;-10.782;2023-04-29T03:37:27;9.52;;;7.05;;
56321;SDS011;42227;6.376;-10.782;2023-04-29T03:40:08;12.98;;;7.03;;
56321;SDS011;42227;6.376;-10.782;2023-04-29T03:42:38;9.13;;;6.32;;
56321;SDS011;42227;6.376;-10.782;2023-04-29T03:45:07;15.93;;;8.07;;
56321;SDS011;42227;6.376;-10.782;2023-04-29T03:47:36;12.75;;;8.43;;
56321;SDS011;42227;6.376;-10.782;2023-04-29T03:50:04;18.35;;;8.57;;
56321;SDS011;42227;6.376;-10.782;2023-04-29T03:52:34;13.02;;;7.45;;
56321;SDS011;42227;6.376;-10.782;2023-04-29T03:55:08;13.02;;;6.95;;
56321;SDS011;42227;6.376;-10.782;2023-04-29T03:57:37;17.58;;;8.40;;
56321;SDS011;42227;6.376;-10.782;2023-04-29T04:02:43;11.95;;;7.18;;
56321;SDS011;42227;6.376;-10.782;2023-04-29T04:05:12;18.88;;;7.20;;
56321;SDS011;42227;6.376;-10.782;2023-04-29T04:07:47;8.85;;;5.85;;
56321;SDS011;42227;6.376;-10.782;2023-04-29T04:10:33;11.27;;;8.15;;
56321;SDS011;42227;6.376;-10.782;2023-04-29T04:13:06;15.50;;;7.75;;
56321;SDS011;42227;6.376;-10.782;2023-04-29T04:15:35;15.82;;;8.05;;
56321;SDS011;42227;6.376;-10.782;2023-04-29T04:18:03;8.63;;;7.03;;
56321;SDS011;42227;6.376;-10.782;2023-04-29T04:20:31;16.73;;;8.38;;
56321;SDS011;42227;6.376;-10.782;2023-04-29T04:22:59;20.77;;;6.82;;
56321;SDS011;42227;6.376;-10.782;2023-04-29T04:25:29;10.55;;;7.82;;
56321;SDS011;42227;6.376;-10.782;2023-04-29T04:28:16;10.85;;;7.53;;
56321;SDS011;42227;6.376;-10.782;2023-04-29T04:31:07;19.88;;;7.53;;
56321;SDS011;42227;6.376;-10.782;2023-04-29T04:33:35;17.67;;;7.90;;
56321;SDS011;42227;6.376;-10.782;2023-04-29T04:36:03;10.25;;;7.75;;
56321;SDS011;42227;6.376;-10.782;2023-04-29T04:38:32;12.77;;;8.65;;
56321;SDS011;42227;6.376;-10.782;2023-04-29T04:41:05;13.52;;;9.52;;
56321;SDS011;42227;6.376;-10.782;2023-04-29T04:43:36;19.95;;;8.52;;
56321;SDS011;42227;6.376;-10.782;2023-04-29T04:46:10;16.58;;;7.63;;
56321;SDS011;42227;6.376;-10.782;2023-04-29T04:48:49;13.38;;;7.30;;
56321;SDS011;42227;6.376;-10.782;2023-04-29T04:51:18;13.23;;;8.50;;
56321;SDS011;42227;6.376;-10.782;2023-04-29T04:53:47;17.50;;;8.88;;
56321;SDS011;42227;6.376;-10.782;2023-04-29T04:56:20;15.55;;;7.20;;
56321;SDS011;42227;6.376;-10.782;2023-04-29T04:58:49;16.55;;;8.35;;
56321;SDS011;42227;6.376;-10.782;2023-04-29T05:01:17;15.68;;;9.45;;
56321;SDS011;42227;6.376;-10.782;2023-04-29T05:03:46;15.15;;;7.50;;
56321;SDS011;42227;6.376;-10.782;2023-04-29T05:06:14;17.85;;;8.85;;
56321;SDS011;42227;6.376;-10.782;2023-04-29T05:08:45;20.42;;;8.07;;
56321;SDS011;42227;6.376;-10.782;2023-04-29T05:11:18;12.98;;;6.40;;
56321;SDS011;42227;6.376;-10.782;2023-04-29T05:14:04;13.00;;;7.18;;
56321;SDS011;42227;6.376;-10.782;2023-04-29T05:16:32;17.30;;;7.82;;
56321;SDS011;42227;6.376;-10.782;2023-04-29T05:19:01;16.48;;;8.60;;
56321;SDS011;42227;6.376;-10.782;2023-04-29T05:21:35;12.85;;;7.32;;
56321;SDS011;42227;6.376;-10.782;2023-04-29T05:24:06;13.43;;;7.82;;
56321;SDS011;42227;6.376;-10.782;2023-04-29T05:26:34;11.30;;;7.60;;
56321;SDS011;42227;6.376;-10.782;2023-04-29T05:29:04;12.70;;;8.27;;
56321;SDS011;42227;6.376;-10.782;2023-04-29T05:31:42;15.13;;;7.63;;
56321;SDS011;42227;6.376;-10.782;2023-04-29T05:34:11;13.20;;;7.65;;
56321;SDS011;42227;6.376;-10.782;2023-04-29T05:36:39;13.38;;;7.47;;
56321;SDS011;42227;6.376;-10.782;2023-04-29T05:39:08;15.93;;;8.68;;
56321;SDS011;42227;6.376;-10.782;2023-04-29T05:41:36;14.88;;;7.90;;
56321;SDS011;42227;6.376;-10.782;2023-04-29T05:44:15;20.00;;;7.22;;
56321;SDS011;42227;6.376;-10.782;2023-04-29T05:46:45;10.38;;;7.05;;
56321;SDS011;42227;6.376;-10.782;2023-04-29T05:49:13;13.43;;;7.82;;
56321;SDS011;42227;6.376;-10.782;2023-04-29T05:51:41;12.35;;;7.07;;
56321;SDS011;42227;6.376;-10.782;2023-04-29T05:54:10;19.02;;;8.20;;
56321;SDS011;42227;6.376;-10.782;2023-04-29T05:56:38;11.23;;;8.18;;
56321;SDS011;42227;6.376;-10.782;2023-04-29T05:59:08;13.68;;;9.45;;
56321;SDS011;42227;6.376;-10.782;2023-04-29T06:01:36;10.63;;;8.68;;
56321;SDS011;42227;6.376;-10.782;2023-04-29T06:04:05;11.95;;;8.90;;
56321;SDS011;42227;6.376;-10.782;2023-04-29T06:06:54;23.90;;;9.57;;
56321;SDS011;42227;6.376;-10.782;2023-04-29T06:09:45;16.27;;;6.97;;
56321;SDS011;42227;6.376;-10.782;2023-04-29T06:12:13;15.20;;;8.07;;
56321;SDS011;42227;6.376;-10.782;2023-04-29T06:14:44;12.55;;;8.07;;
56321;SDS011;42227;6.376;-10.782;2023-04-29T06:17:12;7.47;;;6.70;;
56321;SDS011;42227;6.376;-10.782;2023-04-29T06:19:41;16.30;;;7.55;;
56321;SDS011;42227;6.376;-10.782;2023-04-29T06:22:09;10.90;;;7.18;;
56321;SDS011;42227;6.376;-10.782;2023-04-29T06:24:42;13.90;;;7.72;;
56321;SDS011;42227;6.376;-10.782;2023-04-29T06:27:14;18.30;;;10.03;;
56321;SDS011;42227;6.376;-10.782;2023-04-29T06:29:42;15.93;;;9.60;;
56321;SDS011;42227;6.376;-10.782;2023-04-29T06:32:11;19.90;;;9.98;;
56321;SDS011;42227;6.376;-10.782;2023-04-29T06:34:40;11.13;;;7.72;;
56321;SDS011;42227;6.376;-10.782;2023-04-29T06:37:28;21.90;;;8.65;;
56321;SDS011;42227;6.376;-10.782;2023-04-29T06:40:20;10.30;;;7.90;;
56321;SDS011;42227;6.376;-10.782;2023-04-29T06:43:22;14.40;;;8.70;;
56321;SDS011;42227;6.376;-10.782;2023-04-29T06:46:09;14.55;;;8.75;;
56321;SDS011;42227;6.376;-10.782;2023-04-29T06:48:43;14.25;;;9.18;;
56321;SDS011;42227;6.376;-10.782;2023-04-29T06:51:11;20.42;;;11.88;;
56321;SDS011;42227;6.376;-10.782;2023-04-29T06:53:39;23.30;;;11.68;;
56321;SDS011;42227;6.376;-10.782;2023-04-29T06:56:08;19.30;;;11.65;;
56321;SDS011;42227;6.376;-10.782;2023-04-29T06:58:36;24.95;;;10.93;;
56321;SDS011;42227;6.376;-10.782;2023-04-29T07:01:06;12.60;;;10.40;;
56321;SDS011;42227;6.376;-10.782;2023-04-29T07:03:34;14.98;;;11.50;;
56321;SDS011;42227;6.376;-10.782;2023-04-29T07:06:03;25.73;;;11.48;;
56321;SDS011;42227;6.376;-10.782;2023-04-29T07:08:31;19.20;;;10.65;;
56321;SDS011;42227;6.376;-10.782;2023-04-29T07:10:59;18.63;;;9.63;;
56321;SDS011;42227;6.376;-10.782;2023-04-29T07:13:28;14.55;;;9.70;;
56321;SDS011;42227;6.376;-10.782;2023-04-29T07:15:56;18.98;;;9.57;;
56321;SDS011;42227;6.376;-10.782;2023-04-29T07:18:26;18.38;;;11.00;;
56321;SDS011;42227;6.376;-10.782;2023-04-29T07:20:59;18.35;;;11.68;;
56321;SDS011;42227;6.376;-10.782;2023-04-29T07:23:28;45.47;;;27.40;;
56321;SDS011;42227;6.376;-10.782;2023-04-29T07:25:56;72.03;;;44.15;;
56321;SDS011;42227;6.376;-10.782;2023-04-29T07:28:24;46.63;;;28.60;;
56321;SDS011;42227;6.376;-10.782;2023-04-29T07:30:53;24.38;;;17.20;;
56321;SDS011;42227;6.376;-10.782;2023-04-29T07:33:21;20.63;;;13.30;;
56321;SDS011;42227;6.376;-10.782;2023-04-29T07:35:50;25.52;;;12.20;;
56321;SDS011;42227;6.376;-10.782;2023-04-29T07:38:19;20.27;;;12.57;;
56321;SDS011;42227;6.376;-10.782;2023-04-29T07:40:47;16.92;;;9.82;;
56321;SDS011;42227;6.376;-10.782;2023-04-29T07:43:16;23.85;;;10.30;;
56321;SDS011;42227;6.376;-10.782;2023-04-29T07:45:44;19.15;;;9.52;;
56321;SDS011;42227;6.376;-10.782;2023-04-29T07:48:13;23.02;;;11.07;;
56321;SDS011;42227;6.376;-10.782;2023-04-29T07:50:41;16.58;;;12.43;;
56321;SDS011;42227;6.376;-10.782;2023-04-29T07:53:09;17.13;;;8.85;;
56321;SDS011;42227;6.376;-10.782;2023-04-29T07:55:38;18.13;;;10.05;;
56321;SDS011;42227;6.376;-10.782;2023-04-29T07:58:07;14.73;;;10.18;;
56321;SDS011;42227;6.376;-10.782;2023-04-29T08:00:35;19.10;;;12.77;;
56321;SDS011;42227;6.376;-10.782;2023-04-29T08:03:04;12.10;;;8.15;;
56321;SDS011;42227;6.376;-10.782;2023-04-29T08:05:33;16.83;;;10.25;;
56321;SDS011;42227;6.376;-10.782;2023-04-29T08:08:02;16.67;;;7.65;;
56321;SDS011;42227;6.376;-10.782;2023-04-29T08:10:30;18.05;;;8.90;;
56321;SDS011;42227;6.376;-10.782;2023-04-29T08:12:59;18.73;;;8.75;;
56321;SDS011;42227;6.376;-10.782;2023-04-29T08:15:27;11.93;;;8.55;;
56321;SDS011;42227;6.376;-10.782;2023-04-29T08:17:55;13.68;;;10.98;;
56321;SDS011;42227;6.376;-10.782;2023-04-29T08:20:24;22.63;;;12.10;;
56321;SDS011;42227;6.376;-10.782;2023-04-29T08:22:52;17.58;;;11.35;;
56321;SDS011;42227;6.376;-10.782;2023-04-29T08:25:20;13.77;;;10.38;;
56321;SDS011;42227;6.376;-10.782;2023-04-29T08:27:48;15.13;;;8.43;;
56321;SDS011;42227;6.376;-10.782;2023-04-29T08:30:17;11.90;;;6.60;;
56321;SDS011;42227;6.376;-10.782;2023-04-29T08:32:45;15.10;;;6.25;;
56321;SDS011;42227;6.376;-10.782;2023-04-29T08:35:14;11.82;;;6.28;;
56321;SDS011;42227;6.376;-10.782;2023-04-29T08:37:42;11.27;;;7.13;;
56321;SDS011;42227;6.376;-10.782;2023-04-29T08:40:11;11.60;;;5.20;;
56321;SDS011;42227;6.376;-10.782;2023-04-29T08:42:40;10.60;;;5.35;;
56321;SDS011;42227;6.376;-10.782;2023-04-29T08:45:14;10.00;;;5.32;;
56321;SDS011;42227;6.376;-10.782;2023-04-29T08:47:49;12.65;;;7.43;;
56321;SDS011;42227;6.376;-10.782;2023-04-29T08:50:18;8.13;;;6.40;;
56321;SDS011;42227;6.376;-10.782;2023-04-29T08:52:48;9.20;;;7.28;;
56321;SDS011;42227;6.376;-10.782;2023-04-29T08:55:17;16.30;;;9.23;;
56321;SDS011;42227;6.376;-10.782;2023-04-29T08:57:45;17.15;;;8.75;;
56321;SDS011;42227;6.376;-10.782;2023-04-29T09:00:16;10.43;;;7.63;;
56321;SDS011;42227;6.376;-10.782;2023-04-29T09:02:46;14.57;;;6.75;;
56321;SDS011;42227;6.376;-10.782;2023-04-29T09:05:18;9.35;;;6.78;;
56321;SDS011;42227;6.376;-10.782;2023-04-29T09:07:46;15.88;;;8.32;;
56321;SDS011;42227;6.376;-10.782;2023-04-29T09:10:17;17.67;;;10.05;;
56321;SDS011;42227;6.376;-10.782;2023-04-29T09:12:48;20.35;;;7.43;;
56321;SDS011;42227;6.376;-10.782;2023-04-29T09:15:16;11.20;;;7.82;;
56321;SDS011;42227;6.376;-10.782;2023-04-29T09:17:45;14.95;;;7.28;;
56321;SDS011;42227;6.376;-10.782;2023-04-29T09:22:49;14.27;;;9.15;;
56321;SDS011;42227;6.376;-10.782;2023-04-29T09:25:19;17.15;;;8.52;;
56321;SDS011;42227;6.376;-10.782;2023-04-29T09:27:48;14.57;;;8.60;;
56321;SDS011;42227;6.376;-10.782;2023-04-29T09:30:16;9.77;;;7.80;;
56321;SDS011;42227;6.376;-10.782;2023-04-29T09:32:44;17.20;;;9.80;;
56321;SDS011;42227;6.376;-10.782;2023-04-29T09:35:29;20.05;;;8.75;;
56321;SDS011;42227;6.376;-10.782;2023-04-29T09:38:07;16.23;;;8.82;;
56321;SDS011;42227;6.376;-10.782;2023-04-29T09:40:42;11.43;;;7.93;;
56321;SDS011;42227;6.376;-10.782;2023-04-29T09:43:25;13.45;;;8.27;;
56321;SDS011;42227;6.376;-10.782;2023-04-29T09:45:54;13.35;;;7.00;;
56321;SDS011;42227;6.376;-10.782;2023-04-29T09:48:22;11.50;;;6.03;;
56321;SDS011;42227;6.376;-10.782;2023-04-29T09:50:58;11.23;;;6.50;;
56321;SDS011;42227;6.376;-10.782;2023-04-29T09:53:28;8.10;;;6.05;;
56321;SDS011;42227;6.376;-10.782;2023-04-29T09:55:59;9.20;;;6.85;;
56321;SDS011;42227;6.376;-10.782;2023-04-29T09:58:31;8.55;;;7.55;;
56321;SDS011;42227;6.376;-10.782;2023-04-29T10:01:01;14.38;;;7.40;;
56321;SDS011;42227;6.376;-10.782;2023-04-29T10:03:34;8.27;;;6.68;;
56321;SDS011;42227;6.376;-10.782;2023-04-29T10:06:05;17.50;;;8.10;;
56321;SDS011;42227;6.376;-10.782;2023-04-29T10:08:34;12.90;;;6.22;;
56321;SDS011;42227;6.376;-10.782;2023-04-29T10:11:03;13.70;;;7.35;;
56321;SDS011;42227;6.376;-10.782;2023-04-29T10:13:33;9.15;;;7.00;;
56321;SDS011;42227;6.376;-10.782;2023-04-29T10:18:36;9.65;;;4.43;;
56321;SDS011;42227;6.376;-10.782;2023-04-29T10:21:08;7.30;;;4.13;;
56321;SDS011;42227;6.376;-10.782;2023-04-29T10:23:37;8.50;;;3.97;;
56321;SDS011;42227;6.376;-10.782;2023-04-29T10:26:06;4.95;;;3.83;;
56321;SDS011;42227;6.376;-10.782;2023-04-29T10:28:38;8.80;;;4.43;;
56321;SDS011;42227;6.376;-10.782;2023-04-29T10:31:08;6.05;;;3.65;;
56321;SDS011;42227;6.376;-10.782;2023-04-29T10:33:38;8.68;;;3.22;;
56321;SDS011;42227;6.376;-10.782;2023-04-29T10:36:10;4.18;;;3.65;;
56321;SDS011;42227;6.376;-10.782;2023-04-29T10:38:39;5.07;;;3.22;;
56321;SDS011;42227;6.376;-10.782;2023-04-29T10:41:22;5.38;;;2.75;;
56321;SDS011;42227;6.376;-10.782;2023-04-29T10:43:54;9.80;;;4.80;;
56321;SDS011;42227;6.376;-10.782;2023-04-29T10:46:27;4.72;;;3.42;;
56321;SDS011;42227;6.376;-10.782;2023-04-29T10:49:04;7.15;;;3.95;;
56321;SDS011;42227;6.376;-10.782;2023-04-29T10:51:34;5.88;;;3.33;;
56321;SDS011;42227;6.376;-10.782;2023-04-29T10:54:09;6.18;;;3.42;;
56321;SDS011;42227;6.376;-10.782;2023-04-29T10:59:09;9.27;;;3.80;;
56321;SDS011;42227;6.376;-10.782;2023-04-29T11:01:40;6.15;;;4.28;;
56321;SDS011;42227;6.376;-10.782;2023-04-29T11:04:09;4.05;;;3.40;;
56321;SDS011;42227;6.376;-10.782;2023-04-29T11:06:39;10.15;;;4.18;;
56321;SDS011;42227;6.376;-10.782;2023-04-29T11:09:09;8.10;;;3.58;;
56321;SDS011;42227;6.376;-10.782;2023-04-29T11:12:03;11.02;;;4.15;;
56321;SDS011;42227;6.376;-10.782;2023-04-29T11:17:08;6.88;;;4.75;;
56321;SDS011;42227;6.376;-10.782;2023-04-29T11:19:43;5.40;;;3.80;;
56321;SDS011;42227;6.376;-10.782;2023-04-29T11:24:51;5.00;;;3.33;;
56321;SDS011;42227;6.376;-10.782;2023-04-29T11:27:24;5.50;;;3.63;;
56321;SDS011;42227;6.376;-10.782;2023-04-29T11:29:54;8.13;;;3.60;;
56321;SDS011;42227;6.376;-10.782;2023-04-29T11:32:24;10.45;;;3.00;;
56321;SDS011;42227;6.376;-10.782;2023-04-29T11:34:53;5.38;;;3.50;;
56321;SDS011;42227;6.376;-10.782;2023-04-29T11:37:23;9.50;;;4.40;;
56321;SDS011;42227;6.376;-10.782;2023-04-29T11:39:58;9.45;;;3.78;;
56321;SDS011;42227;6.376;-10.782;2023-04-29T11:42:26;5.30;;;3.55;;
56321;SDS011;42227;6.376;-10.782;2023-04-29T11:44:55;8.35;;;3.90;;
56321;SDS011;42227;6.376;-10.782;2023-04-29T11:47:27;7.35;;;4.03;;
56321;SDS011;42227;6.376;-10.782;2023-04-29T11:50:06;4.82;;;3.85;;
56321;SDS011;42227;6.376;-10.782;2023-04-29T11:52:36;6.70;;;4.18;;
56321;SDS011;42227;6.376;-10.782;2023-04-29T11:55:09;8.05;;;3.83;;
56321;SDS011;42227;6.376;-10.782;2023-04-29T11:57:38;8.93;;;3.67;;
56321;SDS011;42227;6.376;-10.782;2023-04-29T12:00:10;6.90;;;3.83;;
56321;SDS011;42227;6.376;-10.782;2023-04-29T12:02:42;6.68;;;4.60;;
56321;SDS011;42227;6.376;-10.782;2023-04-29T12:05:12;8.68;;;4.18;;
56321;SDS011;42227;6.376;-10.782;2023-04-29T12:07:41;6.10;;;3.20;;
56321;SDS011;42227;6.376;-10.782;2023-04-29T12:10:10;4.57;;;3.28;;
56321;SDS011;42227;6.376;-10.782;2023-04-29T12:12:39;10.13;;;4.47;;
56321;SDS011;42227;6.376;-10.782;2023-04-29T12:15:08;5.72;;;2.72;;
56321;SDS011;42227;6.376;-10.782;2023-04-29T12:17:37;4.18;;;3.30;;
56321;SDS011;42227;6.376;-10.782;2023-04-29T12:20:06;8.02;;;3.38;;
56321;SDS011;42227;6.376;-10.782;2023-04-29T12:22:35;8.60;;;3.60;;
56321;SDS011;42227;6.376;-10.782;2023-04-29T12:25:04;9.82;;;4.55;;
56321;SDS011;42227;6.376;-10.782;2023-04-29T12:27:34;12.25;;;3.67;;
56321;SDS011;42227;6.376;-10.782;2023-04-29T12:30:09;7.45;;;2.65;;
56321;SDS011;42227;6.376;-10.782;2023-04-29T12:32:37;7.78;;;3.40;;
56321;SDS011;42227;6.376;-10.782;2023-04-29T12:35:13;6.63;;;2.65;;
56321;SDS011;42227;6.376;-10.782;2023-04-29T12:37:42;3.60;;;2.75;;
56321;SDS011;42227;6.376;-10.782;2023-04-29T12:40:14;8.48;;;4.95;;
56321;SDS011;42227;6.376;-10.782;2023-04-29T12:42:42;8.60;;;3.08;;
56321;SDS011;42227;6.376;-10.782;2023-04-29T12:45:29;10.65;;;2.20;;
56321;SDS011;42227;6.376;-10.782;2023-04-29T12:48:00;4.93;;;2.55;;
56321;SDS011;42227;6.376;-10.782;2023-04-29T12:50:38;5.13;;;3.85;;
56321;SDS011;42227;6.376;-10.782;2023-04-29T12:53:08;7.40;;;4.10;;
56321;SDS011;42227;6.376;-10.782;2023-04-29T12:55:36;8.35;;;4.18;;
56321;SDS011;42227;6.376;-10.782;2023-04-29T12:58:05;12.02;;;6.30;;
56321;SDS011;42227;6.376;-10.782;2023-04-29T13:00:33;7.93;;;4.07;;
56321;SDS011;42227;6.376;-10.782;2023-04-29T13:03:02;5.88;;;3.45;;
56321;SDS011;42227;6.376;-10.782;2023-04-29T13:05:31;5.35;;;2.97;;
56321;SDS011;42227;6.376;-10.782;2023-04-29T13:07:59;5.07;;;3.00;;
56321;SDS011;42227;6.376;-10.782;2023-04-29T13:10:28;16.13;;;3.72;;
56321;SDS011;42227;6.376;-10.782;2023-04-29T13:12:56;8.32;;;3.15;;
56321;SDS011;42227;6.376;-10.782;2023-04-29T13:15:24;38.03;;;33.90;;
56321;SDS011;42227;6.376;-10.782;2023-04-29T13:17:53;11.00;;;8.35;;
56321;SDS011;42227;6.376;-10.782;2023-04-29T13:20:21;33.50;;;29.92;;
56321;SDS011;42227;6.376;-10.782;2023-04-29T13:22:49;17.00;;;9.02;;
56321;SDS011;42227;6.376;-10.782;2023-04-29T13:25:18;9.30;;;3.17;;
56321;SDS011;42227;6.376;-10.782;2023-04-29T13:27:46;5.13;;;3.67;;
56321;SDS011;42227;6.376;-10.782;2023-04-29T13:30:14;3.97;;;2.58;;
56321;SDS011;42227;6.376;-10.782;2023-04-29T13:32:43;4.57;;;2.50;;
56321;SDS011;42227;6.376;-10.782;2023-04-29T13:35:21;4.28;;;2.90;;
56321;SDS011;42227;6.376;-10.782;2023-04-29T13:37:49;9.38;;;2.85;;
56321;SDS011;42227;6.376;-10.782;2023-04-29T13:40:17;7.65;;;2.97;;
56321;SDS011;42227;6.376;-10.782;2023-04-29T13:42:47;11.85;;;2.55;;
56321;SDS011;42227;6.376;-10.782;2023-04-29T13:45:27;12.73;;;3.75;;
56321;SDS011;42227;6.376;-10.782;2023-04-29T13:47:56;9.35;;;3.35;;
56321;SDS011;42227;6.376;-10.782;2023-04-29T13:50:44;7.43;;;4.05;;
56321;SDS011;42227;6.376;-10.782;2023-04-29T13:53:15;4.85;;;2.70;;
56321;SDS011;42227;6.376;-10.782;2023-04-29T13:55:46;3.90;;;2.40;;
56321;SDS011;42227;6.376;-10.782;2023-04-29T13:58:35;11.82;;;3.60;;
56321;SDS011;42227;6.376;-10.782;2023-04-29T14:01:23;6.18;;;3.35;;
56321;SDS011;42227;6.376;-10.782;2023-04-29T14:04:11;14.27;;;3.92;;
56321;SDS011;42227;6.376;-10.782;2023-04-29T14:06:41;19.27;;;5.68;;
56321;SDS011;42227;6.376;-10.782;2023-04-29T14:09:10;12.18;;;4.20;;
56321;SDS011;42227;6.376;-10.782;2023-04-29T14:11:38;8.95;;;3.22;;
56321;SDS011;42227;6.376;-10.782;2023-04-29T14:14:06;8.60;;;3.70;;
56321;SDS011;42227;6.376;-10.782;2023-04-29T14:16:36;9.20;;;3.08;;
56321;SDS011;42227;6.376;-10.782;2023-04-29T14:19:05;7.88;;;2.80;;
56321;SDS011;42227;6.376;-10.782;2023-04-29T14:21:33;9.50;;;5.25;;
56321;SDS011;42227;6.376;-10.782;2023-04-29T14:24:02;15.27;;;5.05;;
56321;SDS011;42227;6.376;-10.782;2023-04-29T14:26:30;12.57;;;3.80;;
56321;SDS011;42227;6.376;-10.782;2023-04-29T14:28:58;6.57;;;3.03;;
56321;SDS011;42227;6.376;-10.782;2023-04-29T14:31:28;14.48;;;2.92;;
56321;SDS011;42227;6.376;-10.782;2023-04-29T14:33:57;12.95;;;3.47;;
56321;SDS011;42227;6.376;-10.782;2023-04-29T14:36:25;9.57;;;4.13;;
56321;SDS011;42227;6.376;-10.782;2023-04-29T14:38:54;10.25;;;4.22;;
56321;SDS011;42227;6.376;-10.782;2023-04-29T14:41:22;6.00;;;3.55;;
56321;SDS011;42227;6.376;-10.782;2023-04-29T14:43:50;14.57;;;3.58;;
56321;SDS011;42227;6.376;-10.782;2023-04-29T14:46:19;5.95;;;3.80;;
56321;SDS011;42227;6.376;-10.782;2023-04-29T14:48:47;10.93;;;4.10;;
56321;SDS011;42227;6.376;-10.782;2023-04-29T14:51:16;4.10;;;3.00;;
56321;SDS011;42227;6.376;-10.782;2023-04-29T14:53:44;12.95;;;4.70;;
56321;SDS011;42227;6.376;-10.782;2023-04-29T14:56:12;7.63;;;3.67;;
56321;SDS011;42227;6.376;-10.782;2023-04-29T14:58:43;9.82;;;3.20;;
56321;SDS011;42227;6.376;-10.782;2023-04-29T15:01:13;4.88;;;3.08;;
56321;SDS011;42227;6.376;-10.782;2023-04-29T15:03:41;9.82;;;3.42;;
56321;SDS011;42227;6.376;-10.782;2023-04-29T15:06:11;8.85;;;2.95;;
56321;SDS011;42227;6.376;-10.782;2023-04-29T15:08:39;7.32;;;3.78;;
56321;SDS011;42227;6.376;-10.782;2023-04-29T15:11:08;8.27;;;3.50;;
56321;SDS011;42227;6.376;-10.782;2023-04-29T15:13:39;9.60;;;3.50;;
56321;SDS011;42227;6.376;-10.782;2023-04-29T15:16:07;16.83;;;3.70;;
56321;SDS011;42227;6.376;-10.782;2023-04-29T15:18:35;9.77;;;4.68;;